sensor_id;sensor_type;location;lat;lon;timestamp;pressure;altitude;pressure_sealevel;temperature;humidity
50166;BME280;36071;48.140;11.516;2022-11-23T00:03:25;94290.0;;;5.1;84.2
50166;BME280;36071;48.140;11.516;2022-11-23T00:08:25;94300.0;;;5.1;84.6
50166;BME280;36071;48.140;11.516;2022-11-23T00:13:25;94300.0;;;5.2;84.9
50166;BME280;36071;48.140;11.516;2022-11-23T00:18:25;94300.0;;;5.2;84.6
50166;BME280;36071;48.140;11.516;2022-11-23T00:23:25;94290.0;;;5.2;83.2
50166;BME280;36071;48.140;11.516;2022-11-23T00:28:25;94290.0;;;5.2;83.1
50166;BME280;36071;48.140;11.516;2022-11-23T00:33:25;94310.0;;;5.1;84.3
50166;BME280;36071;48.140;11.516;2022-11-23T00:38:27;94290.0;;;5.2;83.9
50166;BME280;36071;48.140;11.516;2022-11-23T00:43:25;94300.0;;;5.1;84.3
50166;BME280;36071;48.140;11.516;2022-11-23T00:48:25;94300.0;;;5.2;84.0
50166;BME280;36071;48.140;11.516;2022-11-23T00:53:25;94290.0;;;5.2;84.8
50166;BME280;36071;48.140;11.516;2022-11-23T00:58:25;94290.0;;;5.2;85.2
50166;BME280;36071;48.140;11.516;2022-11-23T01:03:25;94290.0;;;5.2;85.1
50166;BME280;36071;48.140;11.516;2022-11-23T01:08:25;94290.0;;;5.2;86.0
50166;BME280;36071;48.140;11.516;2022-11-23T01:13:25;94290.0;;;5.2;85.8
50166;BME280;36071;48.140;11.516;2022-11-23T01:18:25;94300.0;;;5.1;85.7
50166;BME280;36071;48.140;11.516;2022-11-23T01:23:27;94300.0;;;5.1;86.0
50166;BME280;36071;48.140;11.516;2022-11-23T01:28:25;94300.0;;;5.0;86.1
50166;BME280;36071;48.140;11.516;2022-11-23T01:33:25;94310.0;;;5.1;85.9
50166;BME280;36071;48.140;11.516;2022-11-23T01:38:25;94310.0;;;5.1;86.0
50166;BME280;36071;48.140;11.516;2022-11-23T01:48:26;94310.0;;;5.1;85.2
50166;BME280;36071;48.140;11.516;2022-11-23T01:53:25;94320.0;;;5.1;84.6
50166;BME280;36071;48.140;11.516;2022-11-23T01:58:25;94320.0;;;5.1;84.5
50166;BME280;36071;48.140;11.516;2022-11-23T02:03:25;94330.0;;;5.1;84.2
50166;BME280;36071;48.140;11.516;2022-11-23T02:08:25;94330.0;;;5.0;84.3
50166;BME280;36071;48.140;11.516;2022-11-23T02:13:26;94330.0;;;5.0;84.5
50166;BME280;36071;48.140;11.516;2022-11-23T02:18:25;94330.0;;;4.9;84.6
50166;BME280;36071;48.140;11.516;2022-11-23T02:23:29;94320.0;;;5.0;84.3
50166;BME280;36071;48.140;11.516;2022-11-23T02:28:26;94310.0;;;4.9;84.2
50166;BME280;36071;48.140;11.516;2022-11-23T02:33:25;94320.0;;;4.9;84.1
50166;BME280;36071;48.140;11.516;2022-11-23T02:38:26;94260.0;;;4.4;83.9
50166;BME280;36071;48.140;11.516;2022-11-23T02:43:25;94320.0;;;4.7;84.4
50166;BME280;36071;48.140;11.516;2022-11-23T02:53:25;94320.0;;;4.6;84.7
50166;BME280;36071;48.140;11.516;2022-11-23T02:58:25;94320.0;;;4.6;85.2
50166;BME280;36071;48.140;11.516;2022-11-23T03:03:25;94310.0;;;4.7;84.6
50166;BME280;36071;48.140;11.516;2022-11-23T03:08:25;94330.0;;;4.6;84.3
50166;BME280;36071;48.140;11.516;2022-11-23T03:13:25;94330.0;;;4.6;84.2
50166;BME280;36071;48.140;11.516;2022-11-23T03:18:25;94330.0;;;4.6;84.9
50166;BME280;36071;48.140;11.516;2022-11-23T03:23:25;94330.0;;;4.7;84.0
50166;BME280;36071;48.140;11.516;2022-11-23T03:28:27;94330.0;;;4.6;83.4
50166;BME280;36071;48.140;11.516;2022-11-23T03:33:25;94340.0;;;4.6;83.7
50166;BME280;36071;48.140;11.516;2022-11-23T03:38:25;94330.0;;;4.5;84.0
50166;BME280;36071;48.140;11.516;2022-11-23T03:43:25;94330.0;;;4.4;83.9
50166;BME280;36071;48.140;11.516;2022-11-23T03:48:25;94320.0;;;4.5;84.2
50166;BME280;36071;48.140;11.516;2022-11-23T03:53:25;94320.0;;;4.4;84.4
50166;BME280;36071;48.140;11.516;2022-11-23T03:58:25;94310.0;;;4.3;85.0
50166;BME280;36071;48.140;11.516;2022-11-23T04:03:25;94320.0;;;4.3;85.0
50166;BME280;36071;48.140;11.516;2022-11-23T04:08:25;94310.0;;;4.3;85.3
50166;BME280;36071;48.140;11.516;2022-11-23T04:13:25;94320.0;;;4.2;85.6
50166;BME280;36071;48.140;11.516;2022-11-23T04:18:25;94310.0;;;4.2;85.5
50166;BME280;36071;48.140;11.516;2022-11-23T04:23:25;94320.0;;;4.2;85.5
50166;BME280;36071;48.140;11.516;2022-11-23T04:28:25;94320.0;;;4.2;85.4
50166;BME280;36071;48.140;11.516;2022-11-23T04:33:25;94310.0;;;4.2;85.1
50166;BME280;36071;48.140;11.516;2022-11-23T04:38:25;94310.0;;;4.2;84.7
50166;BME280;36071;48.140;11.516;2022-11-23T04:43:25;94310.0;;;4.2;84.8
50166;BME280;36071;48.140;11.516;2022-11-23T04:48:25;94310.0;;;4.2;84.5
50166;BME280;36071;48.140;11.516;2022-11-23T04:53:25;94310.0;;;4.2;84.8
50166;BME280;36071;48.140;11.516;2022-11-23T04:58:25;94310.0;;;4.2;84.3
50166;BME280;36071;48.140;11.516;2022-11-23T05:03:25;94300.0;;;4.2;84.3
50166;BME280;36071;48.140;11.516;2022-11-23T05:08:25;94300.0;;;4.2;84.2
50166;BME280;36071;48.140;11.516;2022-11-23T05:13:25;94300.0;;;4.2;83.7
50166;BME280;36071;48.140;11.516;2022-11-23T05:18:25;94300.0;;;4.2;84.6
50166;BME280;36071;48.140;11.516;2022-11-23T05:23:25;94290.0;;;4.2;84.7
50166;BME280;36071;48.140;11.516;2022-11-23T05:28:25;94300.0;;;4.3;84.8
50166;BME280;36071;48.140;11.516;2022-11-23T05:33:25;94290.0;;;4.3;84.2
50166;BME280;36071;48.140;11.516;2022-11-23T05:38:25;94290.0;;;4.3;84.1
50166;BME280;36071;48.140;11.516;2022-11-23T05:43:25;94290.0;;;4.3;84.2
50166;BME280;36071;48.140;11.516;2022-11-23T05:48:25;94290.0;;;4.3;84.8
50166;BME280;36071;48.140;11.516;2022-11-23T05:53:25;94300.0;;;4.3;84.9
50166;BME280;36071;48.140;11.516;2022-11-23T05:58:25;94290.0;;;4.3;85.5
50166;BME280;36071;48.140;11.516;2022-11-23T06:03:25;94290.0;;;4.3;85.2
50166;BME280;36071;48.140;11.516;2022-11-23T06:08:25;94280.0;;;4.3;85.0
50166;BME280;36071;48.140;11.516;2022-11-23T06:13:25;94280.0;;;4.3;84.6
50166;BME280;36071;48.140;11.516;2022-11-23T06:18:25;94290.0;;;4.3;85.0
50166;BME280;36071;48.140;11.516;2022-11-23T06:23:25;94280.0;;;4.2;85.9
50166;BME280;36071;48.140;11.516;2022-11-23T06:28:25;94290.0;;;4.2;86.8
50166;BME280;36071;48.140;11.516;2022-11-23T06:38:25;94290.0;;;4.2;86.2
50166;BME280;36071;48.140;11.516;2022-11-23T06:43:25;94300.0;;;4.3;86.6
50166;BME280;36071;48.140;11.516;2022-11-23T06:48:25;94300.0;;;4.3;86.9
50166;BME280;36071;48.140;11.516;2022-11-23T06:53:25;94310.0;;;4.3;86.9
50166;BME280;36071;48.140;11.516;2022-11-23T06:58:26;94320.0;;;4.3;86.8
50166;BME280;36071;48.140;11.516;2022-11-23T07:03:25;94310.0;;;4.3;86.7
50166;BME280;36071;48.140;11.516;2022-11-23T07:08:25;94310.0;;;4.3;86.9
50166;BME280;36071;48.140;11.516;2022-11-23T07:13:25;94330.0;;;4.3;86.2
50166;BME280;36071;48.140;11.516;2022-11-23T07:18:25;94330.0;;;4.4;86.7
50166;BME280;36071;48.140;11.516;2022-11-23T07:23:25;94330.0;;;4.5;86.0
50166;BME280;36071;48.140;11.516;2022-11-23T07:28:43;94330.0;;;4.5;85.7
50166;BME280;36071;48.140;11.516;2022-11-23T07:33:25;94340.0;;;4.6;85.6
50166;BME280;36071;48.140;11.516;2022-11-23T07:38:25;94350.0;;;4.7;84.5
50166;BME280;36071;48.140;11.516;2022-11-23T07:43:25;94350.0;;;4.8;85.2
50166;BME280;36071;48.140;11.516;2022-11-23T07:48:25;94350.0;;;4.9;84.2
50166;BME280;36071;48.140;11.516;2022-11-23T07:53:25;94360.0;;;5.0;82.8
50166;BME280;36071;48.140;11.516;2022-11-23T07:58:25;94360.0;;;5.1;82.0
50166;BME280;36071;48.140;11.516;2022-11-23T08:03:25;94370.0;;;5.1;81.6
50166;BME280;36071;48.140;11.516;2022-11-23T08:08:25;94380.0;;;5.1;82.6
50166;BME280;36071;48.140;11.516;2022-11-23T08:13:25;94360.0;;;5.2;81.5
50166;BME280;36071;48.140;11.516;2022-11-23T08:18:25;94370.0;;;5.3;81.8
50166;BME280;36071;48.140;11.516;2022-11-23T08:23:25;94370.0;;;5.4;81.5
50166;BME280;36071;48.140;11.516;2022-11-23T08:28:25;94370.0;;;5.6;79.7
50166;BME280;36071;48.140;11.516;2022-11-23T08:33:25;94370.0;;;5.8;78.0
50166;BME280;36071;48.140;11.516;2022-11-23T08:38:25;94370.0;;;5.9;76.9
50166;BME280;36071;48.140;11.516;2022-11-23T08:43:25;94370.0;;;6.0;75.1
50166;BME280;36071;48.140;11.516;2022-11-23T08:48:25;94370.0;;;6.0;74.7
50166;BME280;36071;48.140;11.516;2022-11-23T08:53:25;94380.0;;;6.1;75.0
50166;BME280;36071;48.140;11.516;2022-11-23T08:58:25;94380.0;;;6.0;75.5
50166;BME280;36071;48.140;11.516;2022-11-23T09:03:25;94370.0;;;6.2;74.5
50166;BME280;36071;48.140;11.516;2022-11-23T09:08:25;94370.0;;;6.2;74.1
50166;BME280;36071;48.140;11.516;2022-11-23T09:13:25;94370.0;;;6.3;73.6
50166;BME280;36071;48.140;11.516;2022-11-23T09:18:25;94370.0;;;6.5;72.5
50166;BME280;36071;48.140;11.516;2022-11-23T09:23:25;94360.0;;;6.6;71.9
50166;BME280;36071;48.140;11.516;2022-11-23T09:28:25;94360.0;;;6.9;71.3
50166;BME280;36071;48.140;11.516;2022-11-23T09:33:25;94360.0;;;7.1;69.2
50166;BME280;36071;48.140;11.516;2022-11-23T09:38:25;94350.0;;;8.3;66.2
50166;BME280;36071;48.140;11.516;2022-11-23T09:43:29;94360.0;;;9.8;59.6
50166;BME280;36071;48.140;11.516;2022-11-23T09:48:29;94350.0;;;10.9;54.3
50166;BME280;36071;48.140;11.516;2022-11-23T09:53:27;94350.0;;;11.8;51.2
50166;BME280;36071;48.140;11.516;2022-11-23T09:58:26;94350.0;;;12.9;47.1
50166;BME280;36071;48.140;11.516;2022-11-23T10:03:26;94340.0;;;13.8;45.0
50166;BME280;36071;48.140;11.516;2022-11-23T10:08:29;94350.0;;;15.1;42.8
50166;BME280;36071;48.140;11.516;2022-11-23T10:13:27;94340.0;;;15.4;41.4
50166;BME280;36071;48.140;11.516;2022-11-23T10:18:28;94330.0;;;16.8;36.8
50166;BME280;36071;48.140;11.516;2022-11-23T10:23:30;94320.0;;;18.8;34.0
50166;BME280;36071;48.140;11.516;2022-11-23T10:28:26;94310.0;;;17.6;35.7
50166;BME280;36071;48.140;11.516;2022-11-23T10:33:25;94310.0;;;17.3;35.7
50166;BME280;36071;48.140;11.516;2022-11-23T10:38:25;94300.0;;;18.8;33.9
50166;BME280;36071;48.140;11.516;2022-11-23T10:43:26;94280.0;;;19.6;31.7
50166;BME280;36071;48.140;11.516;2022-11-23T10:48:32;94290.0;;;20.3;30.1
50166;BME280;36071;48.140;11.516;2022-11-23T10:53:25;94280.0;;;20.3;30.4
50166;BME280;36071;48.140;11.516;2022-11-23T10:58:26;94290.0;;;21.0;29.7
50166;BME280;36071;48.140;11.516;2022-11-23T11:03:25;94280.0;;;20.0;30.0
50166;BME280;36071;48.140;11.516;2022-11-23T11:08:26;94280.0;;;20.8;29.3
50166;BME280;36071;48.140;11.516;2022-11-23T11:13:26;94280.0;;;20.6;30.3
50166;BME280;36071;48.140;11.516;2022-11-23T11:18:26;94280.0;;;20.0;31.1
50166;BME280;36071;48.140;11.516;2022-11-23T11:23:25;94280.0;;;19.3;32.6
50166;BME280;36071;48.140;11.516;2022-11-23T11:28:26;94280.0;;;20.0;30.1
50166;BME280;36071;48.140;11.516;2022-11-23T11:33:26;94270.0;;;17.9;33.2
50166;BME280;36071;48.140;11.516;2022-11-23T11:38:26;94270.0;;;17.6;34.2
50166;BME280;36071;48.140;11.516;2022-11-23T11:43:26;94260.0;;;15.5;36.7
50166;BME280;36071;48.140;11.516;2022-11-23T11:48:27;94270.0;;;14.3;38.1
50166;BME280;36071;48.140;11.516;2022-11-23T11:53:26;94260.0;;;14.7;38.5
50166;BME280;36071;48.140;11.516;2022-11-23T11:58:25;94250.0;;;15.3;37.7
50166;BME280;36071;48.140;11.516;2022-11-23T12:03:26;94240.0;;;15.0;39.0
50166;BME280;36071;48.140;11.516;2022-11-23T12:08:29;94250.0;;;14.9;38.9
50166;BME280;36071;48.140;11.516;2022-11-23T12:13:26;94250.0;;;14.8;38.7
50166;BME280;36071;48.140;11.516;2022-11-23T12:18:38;94250.0;;;14.9;38.9
50166;BME280;36071;48.140;11.516;2022-11-23T12:23:27;94240.0;;;15.4;38.4
50166;BME280;36071;48.140;11.516;2022-11-23T12:28:30;94230.0;;;15.3;37.8
50166;BME280;36071;48.140;11.516;2022-11-23T12:33:31;94230.0;;;14.6;38.2
50166;BME280;36071;48.140;11.516;2022-11-23T12:38:28;94220.0;;;14.4;40.1
50166;BME280;36071;48.140;11.516;2022-11-23T12:43:26;94230.0;;;14.6;38.2
50166;BME280;36071;48.140;11.516;2022-11-23T12:48:29;94240.0;;;14.0;39.0
50166;BME280;36071;48.140;11.516;2022-11-23T12:53:28;94240.0;;;13.5;40.3
50166;BME280;36071;48.140;11.516;2022-11-23T12:58:26;94230.0;;;14.1;39.9
50166;BME280;36071;48.140;11.516;2022-11-23T13:03:31;94230.0;;;14.6;39.4
50166;BME280;36071;48.140;11.516;2022-11-23T13:08:29;94240.0;;;14.5;38.4
50166;BME280;36071;48.140;11.516;2022-11-23T13:13:29;94240.0;;;14.5;38.0
50166;BME280;36071;48.140;11.516;2022-11-23T13:18:36;94230.0;;;14.8;38.4
50166;BME280;36071;48.140;11.516;2022-11-23T13:23:25;94220.0;;;15.0;38.1
50166;BME280;36071;48.140;11.516;2022-11-23T13:28:26;94220.0;;;15.1;37.9
50166;BME280;36071;48.140;11.516;2022-11-23T13:33:26;94230.0;;;14.8;39.7
50166;BME280;36071;48.140;11.516;2022-11-23T13:38:26;94230.0;;;15.0;39.3
50166;BME280;36071;48.140;11.516;2022-11-23T13:43:26;94230.0;;;14.5;38.2
50166;BME280;36071;48.140;11.516;2022-11-23T13:48:25;94210.0;;;14.9;37.6
50166;BME280;36071;48.140;11.516;2022-11-23T13:53:26;94210.0;;;14.8;36.5
50166;BME280;36071;48.140;11.516;2022-11-23T13:58:33;94200.0;;;15.0;35.7
50166;BME280;36071;48.140;11.516;2022-11-23T14:03:49;94200.0;;;14.9;36.0
50166;BME280;36071;48.140;11.516;2022-11-23T14:08:25;94200.0;;;14.9;36.1
50166;BME280;36071;48.140;11.516;2022-11-23T14:13:27;94200.0;;;14.3;35.4
50166;BME280;36071;48.140;11.516;2022-11-23T14:18:40;94210.0;;;14.6;34.8
50166;BME280;36071;48.140;11.516;2022-11-23T14:28:30;94220.0;;;14.4;35.7
50166;BME280;36071;48.140;11.516;2022-11-23T14:33:26;94220.0;;;13.8;38.0
50166;BME280;36071;48.140;11.516;2022-11-23T14:38:30;94220.0;;;13.5;40.0
50166;BME280;36071;48.140;11.516;2022-11-23T14:43:25;94220.0;;;13.2;41.1
50166;BME280;36071;48.140;11.516;2022-11-23T14:48:26;94220.0;;;12.8;42.3
50166;BME280;36071;48.140;11.516;2022-11-23T14:53:26;94210.0;;;12.4;43.6
50166;BME280;36071;48.140;11.516;2022-11-23T14:58:26;94230.0;;;12.3;44.1
50166;BME280;36071;48.140;11.516;2022-11-23T15:03:26;94220.0;;;12.0;44.7
50166;BME280;36071;48.140;11.516;2022-11-23T15:08:25;94230.0;;;12.0;46.1
50166;BME280;36071;48.140;11.516;2022-11-23T15:13:26;94230.0;;;11.9;45.6
50166;BME280;36071;48.140;11.516;2022-11-23T15:18:26;94220.0;;;11.6;46.4
50166;BME280;36071;48.140;11.516;2022-11-23T15:23:27;94230.0;;;11.6;47.2
50166;BME280;36071;48.140;11.516;2022-11-23T15:28:25;94220.0;;;11.4;47.9
50166;BME280;36071;48.140;11.516;2022-11-23T15:33:25;94230.0;;;11.3;48.3
50166;BME280;36071;48.140;11.516;2022-11-23T15:38:25;94230.0;;;11.2;49.1
50166;BME280;36071;48.140;11.516;2022-11-23T15:43:25;94240.0;;;11.0;49.8
50166;BME280;36071;48.140;11.516;2022-11-23T15:48:26;94230.0;;;10.7;51.2
50166;BME280;36071;48.140;11.516;2022-11-23T15:53:26;94230.0;;;10.6;51.9
50166;BME280;36071;48.140;11.516;2022-11-23T15:58:25;94230.0;;;10.5;52.7
50166;BME280;36071;48.140;11.516;2022-11-23T16:03:26;94230.0;;;10.4;53.2
50166;BME280;36071;48.140;11.516;2022-11-23T16:08:35;94220.0;;;10.3;54.0
50166;BME280;36071;48.140;11.516;2022-11-23T16:13:33;94230.0;;;10.1;54.9
50166;BME280;36071;48.140;11.516;2022-11-23T16:18:25;94240.0;;;10.0;55.1
50166;BME280;36071;48.140;11.516;2022-11-23T16:23:26;94240.0;;;9.8;55.7
50166;BME280;36071;48.140;11.516;2022-11-23T16:28:26;94240.0;;;9.7;55.9
50166;BME280;36071;48.140;11.516;2022-11-23T16:33:25;94240.0;;;9.6;56.3
50166;BME280;36071;48.140;11.516;2022-11-23T16:38:25;94240.0;;;9.4;56.7
50166;BME280;36071;48.140;11.516;2022-11-23T16:43:25;94240.0;;;9.2;57.1
50166;BME280;36071;48.140;11.516;2022-11-23T16:48:35;94250.0;;;8.8;58.2
50166;BME280;36071;48.140;11.516;2022-11-23T16:53:25;94240.0;;;8.9;58.2
50166;BME280;36071;48.140;11.516;2022-11-23T16:58:25;94250.0;;;8.7;58.1
50166;BME280;36071;48.140;11.516;2022-11-23T17:03:25;94230.0;;;8.4;58.6
50166;BME280;36071;48.140;11.516;2022-11-23T17:08:25;94240.0;;;8.3;58.8
50166;BME280;36071;48.140;11.516;2022-11-23T17:13:26;94250.0;;;8.1;59.3
50166;BME280;36071;48.140;11.516;2022-11-23T17:18:25;94250.0;;;8.0;60.1
50166;BME280;36071;48.140;11.516;2022-11-23T17:23:25;94240.0;;;7.9;60.6
50166;BME280;36071;48.140;11.516;2022-11-23T17:28:25;94240.0;;;7.9;60.7
50166;BME280;36071;48.140;11.516;2022-11-23T17:33:25;94240.0;;;7.8;61.2
50166;BME280;36071;48.140;11.516;2022-11-23T17:38:25;94250.0;;;7.7;61.6
50166;BME280;36071;48.140;11.516;2022-11-23T17:43:25;94260.0;;;7.5;62.1
50166;BME280;36071;48.140;11.516;2022-11-23T17:48:25;94270.0;;;7.4;62.8
50166;BME280;36071;48.140;11.516;2022-11-23T17:53:25;94270.0;;;7.3;63.1
50166;BME280;36071;48.140;11.516;2022-11-23T17:58:25;94270.0;;;7.3;63.7
50166;BME280;36071;48.140;11.516;2022-11-23T18:03:25;94270.0;;;7.2;63.8
50166;BME280;36071;48.140;11.516;2022-11-23T18:08:25;94280.0;;;7.1;64.0
50166;BME280;36071;48.140;11.516;2022-11-23T18:13:25;94270.0;;;7.0;64.4
50166;BME280;36071;48.140;11.516;2022-11-23T18:18:25;94280.0;;;7.0;64.3
50166;BME280;36071;48.140;11.516;2022-11-23T18:23:25;94280.0;;;6.9;64.2
50166;BME280;36071;48.140;11.516;2022-11-23T18:28:25;94290.0;;;6.8;64.4
50166;BME280;36071;48.140;11.516;2022-11-23T18:33:25;94300.0;;;6.8;64.0
50166;BME280;36071;48.140;11.516;2022-11-23T18:38:25;94320.0;;;6.7;64.3
50166;BME280;36071;48.140;11.516;2022-11-23T18:43:25;94320.0;;;6.7;64.5
50166;BME280;36071;48.140;11.516;2022-11-23T18:48:25;94320.0;;;6.7;64.0
50166;BME280;36071;48.140;11.516;2022-11-23T18:53:25;94330.0;;;6.6;64.9
50166;BME280;36071;48.140;11.516;2022-11-23T18:58:25;94340.0;;;6.5;65.6
50166;BME280;36071;48.140;11.516;2022-11-23T19:03:25;94340.0;;;6.5;65.0
50166;BME280;36071;48.140;11.516;2022-11-23T19:08:25;94360.0;;;6.5;64.9
50166;BME280;36071;48.140;11.516;2022-11-23T19:13:25;94370.0;;;6.7;64.4
50166;BME280;36071;48.140;11.516;2022-11-23T19:18:25;94400.0;;;6.6;64.1
50166;BME280;36071;48.140;11.516;2022-11-23T19:23:25;94410.0;;;6.0;67.1
50166;BME280;36071;48.140;11.516;2022-11-23T19:28:25;94410.0;;;5.9;67.1
50166;BME280;36071;48.140;11.516;2022-11-23T19:33:25;94430.0;;;6.0;67.9
50166;BME280;36071;48.140;11.516;2022-11-23T19:38:25;94440.0;;;6.1;66.7
50166;BME280;36071;48.140;11.516;2022-11-23T19:43:25;94450.0;;;5.9;66.9
50166;BME280;36071;48.140;11.516;2022-11-23T19:48:25;94470.0;;;6.0;66.4
50166;BME280;36071;48.140;11.516;2022-11-23T19:53:25;94490.0;;;5.8;66.5
50166;BME280;36071;48.140;11.516;2022-11-23T19:58:25;94490.0;;;5.9;67.1
50166;BME280;36071;48.140;11.516;2022-11-23T20:03:25;94500.0;;;5.9;67.9
50166;BME280;36071;48.140;11.516;2022-11-23T20:08:25;94500.0;;;6.1;67.6
50166;BME280;36071;48.140;11.516;2022-11-23T20:13:25;94500.0;;;6.0;68.6
50166;BME280;36071;48.140;11.516;2022-11-23T20:18:25;94520.0;;;5.8;70.3
50166;BME280;36071;48.140;11.516;2022-11-23T20:23:25;94540.0;;;5.9;71.0
50166;BME280;36071;48.140;11.516;2022-11-23T20:28:25;94550.0;;;5.8;71.5
50166;BME280;36071;48.140;11.516;2022-11-23T20:33:25;94570.0;;;5.8;72.9
50166;BME280;36071;48.140;11.516;2022-11-23T20:38:25;94570.0;;;5.8;72.4
50166;BME280;36071;48.140;11.516;2022-11-23T20:43:25;94580.0;;;5.7;75.2
50166;BME280;36071;48.140;11.516;2022-11-23T20:48:25;94580.0;;;5.6;74.9
50166;BME280;36071;48.140;11.516;2022-11-23T20:53:25;94590.0;;;5.5;76.2
50166;BME280;36071;48.140;11.516;2022-11-23T20:58:25;94610.0;;;5.5;79.2
50166;BME280;36071;48.140;11.516;2022-11-23T21:03:25;94610.0;;;5.3;78.0
50166;BME280;36071;48.140;11.516;2022-11-23T21:08:25;94620.0;;;5.2;79.3
50166;BME280;36071;48.140;11.516;2022-11-23T21:13:25;94620.0;;;5.2;80.1
50166;BME280;36071;48.140;11.516;2022-11-23T21:18:25;94610.0;;;5.1;81.3
50166;BME280;36071;48.140;11.516;2022-11-23T21:23:27;94610.0;;;5.1;80.7
50166;BME280;36071;48.140;11.516;2022-11-23T21:28:25;94610.0;;;4.9;82.3
50166;BME280;36071;48.140;11.516;2022-11-23T21:33:25;94610.0;;;5.1;81.4
50166;BME280;36071;48.140;11.516;2022-11-23T21:38:25;94620.0;;;5.0;82.2
50166;BME280;36071;48.140;11.516;2022-11-23T21:43:25;94610.0;;;4.9;83.6
50166;BME280;36071;48.140;11.516;2022-11-23T21:48:25;94620.0;;;5.0;83.0
50166;BME280;36071;48.140;11.516;2022-11-23T21:53:25;94620.0;;;5.0;83.9
50166;BME280;36071;48.140;11.516;2022-11-23T21:58:29;94620.0;;;5.0;84.9
50166;BME280;36071;48.140;11.516;2022-11-23T22:08:25;94630.0;;;5.2;85.5
50166;BME280;36071;48.140;11.516;2022-11-23T22:13:25;94630.0;;;5.1;87.6
50166;BME280;36071;48.140;11.516;2022-11-23T22:18:25;94640.0;;;5.2;87.8
50166;BME280;36071;48.140;11.516;2022-11-23T22:23:25;94630.0;;;5.2;89.3
50166;BME280;36071;48.140;11.516;2022-11-23T22:28:28;94640.0;;;5.4;89.5
50166;BME280;36071;48.140;11.516;2022-11-23T22:33:25;94650.0;;;5.5;89.0
50166;BME280;36071;48.140;11.516;2022-11-23T22:38:25;94650.0;;;5.6;89.2
50166;BME280;36071;48.140;11.516;2022-11-23T22:43:25;94640.0;;;5.7;90.4
50166;BME280;36071;48.140;11.516;2022-11-23T22:48:25;94650.0;;;5.8;90.0
50166;BME280;36071;48.140;11.516;2022-11-23T22:53:25;94660.0;;;5.9;89.4
50166;BME280;36071;48.140;11.516;2022-11-23T22:58:26;94670.0;;;5.9;89.0
50166;BME280;36071;48.140;11.516;2022-11-23T23:03:25;94680.0;;;6.0;88.8
50166;BME280;36071;48.140;11.516;2022-11-23T23:08:25;94690.0;;;6.0;88.3
50166;BME280;36071;48.140;11.516;2022-11-23T23:13:26;94700.0;;;6.1;88.1
50166;BME280;36071;48.140;11.516;2022-11-23T23:18:25;94710.0;;;6.2;86.9
50166;BME280;36071;48.140;11.516;2022-11-23T23:23:25;94710.0;;;6.2;86.8
50166;BME280;36071;48.140;11.516;2022-11-23T23:28:26;94720.0;;;6.3;86.2
50166;BME280;36071;48.140;11.516;2022-11-23T23:33:25;94730.0;;;6.3;86.2
50166;BME280;36071;48.140;11.516;2022-11-23T23:38:25;94730.0;;;6.4;84.2
50166;BME280;36071;48.140;11.516;2022-11-23T23:43:26;94740.0;;;6.3;85.0
50166;BME280;36071;48.140;11.516;2022-11-23T23:48:26;94750.0;;;6.3;85.1
50166;BME280;36071;48.140;11.516;2022-11-23T23:53:25;94760.0;;;6.4;84.3
50166;BME280;36071;48.140;11.516;2022-11-23T23:58:25;94770.0;;;6.4;83.7
